Grover, NC

1:32 AM EDT on August 31, 2015 (GMT -0400)
Greyfield | | Change Station
CLOSE
Current Station
Personal Weather Station
Location: Kings Mountain, NC
Elevation: 850 ft
Nearby Weather Stations

Elev 850 ft 35.22 °N, 81.43 °W | Updated 10 minutes ago

Mostly Cloudy
Mostly Cloudy
65.7 °F
Feels Like 65.7 °F
N
2.2
Wind Variable Wind from NNW

Today
High -- | Low -- °F
--% Chance of Precip.
Yesterday
High -- | Low -- °F
Precip. -- in
6:57 AM 7:54 PM
Full, 97% visible
Pressure 30.14 in
Visibility 7.0 miles
Clouds Overcast 2900 ft
Dew Point 64 °F
Humidity 95%
Rainfall 0.00 in
Snow Depth Not available.
UV 0 out of 12
Pollen 6.50 out of 12
Air Quality Not available.
Flu Activity Not available.
METAR KEHO 310517Z AUTO 00000KT 7SM OVC029 18/18 A3014 RMK AO2
Pressure 30.14 in
Visibility 7.0 miles
Clouds Overcast 2900 ft
Dew Point 64 °F
Humidity 95%
Rainfall 0.00 in
Snow Depth Not available.
UV 0 out of 12
Pollen 6.50 out of 12
Air Quality Not available.
Flu Activity Not available.
METAR KEHO 310517Z AUTO 00000KT 7SM OVC029 18/18 A3014 RMK AO2

10-Day Weather Forecast

×

Almanac

Astronomy

Aug. 31, 2015 Rise Set
Actual Time
Civil Twilight
Nautical Twilight
Astronomical Twilight
Moon
Length of Visible Light
Length of Day
Tomorrow will be .
, % of the Moon is Illuminated

Today's Extremes

State Highs State Lows

Community

WunderPhotos

Upload Photos

1,851,215 photos uploaded!

WunderBlogs® & News

Nearby

Air Quality

  Air Quality AQ Index Pollutant
Not available.

Snow Depth

Station Depth Elevation

Earthquake Activity

City Distance Mag. Time & Date
Minimum magnitude displayed is 2.5.

Coastal Water Temperatures

Place Temperature

Stations

Nearby Weather Stations

Station Location Temp. Windchill Dew Point Humidity Wind Precip. Elev Updated Type